Strona główna
METAR-TAF:

METAR-TAF

Lotnisko :

Port lotniczy Krajowa

Krajowa, Rumunia

Szerokość geograficzna: 44-14N, Długość geograficzna: 023-52E, wysokość: 192 m

Aktualna obserwacja pogody

Raport powstał 17 minut temu, godzina 22:00 UTC
Wiatr 6 kt od północno-północny wschód
Temperatura 16°C
Wilgotność 72%
Ciśnienie 1007 hPa
Widzialność 10 km lub więcej
Brak chmur poniżej 1500 m i brak chmur cumulonimbus

METAR: LRCV 042200Z 03006KT CAVOK 16/11 Q1007

czas: 01:17 (22:17 UTC)

Prognoza

Raport powstał 2 godziny i 17 minut temu, godzina 20:00 UTC
Prognoza ważna od 04 godzina 21 UTC do 05 godzina 06 UTC
Wiatr 4 kt z kierunków zmiennych
Widzialność 10 km lub więcej
Brak chmur poniżej 1500 m i brak chmur cumulonimbus

TAF: LRCV 042000Z 0421/0506 VRB04KT CAVOK

Obserwacja i prognoza pogody dla ponad 4000 lotnisk (raport METAR i TAF).

Dostępne stacje oznaczono żółtymi i czerwonymi punktami na mapie.

Najedź kursorem aby zobaczyć nazwę stacji.

Kliknij aby zobaczyć obserwacje i prognozy pogody.

Aby zmienić mapę: kliknij na zielony przycisk z czarnym krzyżykiem, aby powiększyć; na zielony przycisk z myślnikiem, aby pomniejszyć; na zielone strzałki, aby przejść do map sąsiednich.


METAR-TAF: